Terminal Aerodrome Forecast
Issued by NWS

Home | Current Version | Previous Version | Text Only | Print | Product List | Glossary On
Versions: 1 2 3 4 5 6 7 8 9 10 11 12 13 14 15 16 17 18 19 20 21 22 23
000
FTUS45 KGJT 301127
TAFHDN
TAF
KHDN 301127Z 3012/3112 11006KT P6SM FEW250
     FM301700 VRB04KT P6SM FEW080 SCT100
     FM302000 20006KT P6SM VCTS FEW090CB SCT100
     FM302300 17009KT P6SM VCTS SCT070CB BKN100
     FM310300 12008KT P6SM SCT070 BKN100=

USA.gov is the U.S. government's official web portal to all federal, state and local government web resources and services.